createdAt,value
2022-12-22T00:01:38.825Z,9.90
2022-12-22T00:04:28.901Z,9.90
2022-12-22T00:07:14.074Z,9.90
2022-12-22T00:09:59.191Z,9.90
2022-12-22T00:12:45.837Z,9.90
2022-12-22T00:15:35.641Z,10.00
2022-12-22T00:18:22.008Z,10.10
2022-12-22T00:21:07.640Z,10.10
2022-12-22T00:23:53.307Z,10.10
2022-12-22T00:26:38.561Z,10.10
2022-12-22T00:29:24.331Z,10.10
2022-12-22T00:32:09.490Z,10.10
2022-12-22T00:34:59.731Z,10.10
2022-12-22T00:37:53.304Z,10.20
2022-12-22T00:40:41.298Z,10.20
2022-12-22T00:43:26.479Z,10.20
2022-12-22T00:46:12.556Z,10.30
2022-12-22T00:49:00.286Z,10.30
2022-12-22T00:51:45.968Z,10.30
2022-12-22T00:54:33.526Z,10.30
2022-12-22T00:57:20.201Z,10.30
2022-12-22T01:00:07.681Z,10.40
2022-12-22T01:02:53.645Z,10.40
2022-12-22T01:05:39.259Z,10.40
2022-12-22T01:08:24.877Z,10.40
2022-12-22T01:11:10.451Z,10.20
2022-12-22T01:13:55.829Z,10.20
2022-12-22T01:16:41.322Z,10.10
2022-12-22T01:19:26.893Z,10.10
2022-12-22T01:22:12.500Z,10.10
2022-12-22T01:24:57.645Z,10.10
2022-12-22T01:27:43.240Z,10.10
2022-12-22T01:30:29.486Z,10.10
2022-12-22T01:33:14.731Z,10.10
2022-12-22T01:36:00.121Z,10.10
2022-12-22T01:38:45.168Z,10.10
2022-12-22T01:41:36.570Z,10.10
2022-12-22T01:44:35.040Z,10.20
2022-12-22T01:47:48.308Z,10.10
2022-12-22T01:50:36.608Z,10.10
2022-12-22T01:53:25.195Z,10.10
2022-12-22T01:56:11.639Z,10.10
2022-12-22T01:59:03.801Z,10.00
2022-12-22T02:01:50.354Z,10.00
2022-12-22T02:04:39.879Z,10.00
2022-12-22T02:07:38.153Z,10.00
2022-12-22T02:10:41.394Z,10.10
2022-12-22T02:14:04.899Z,10.10
2022-12-22T02:17:14.721Z,10.10
2022-12-22T02:20:24.330Z,10.10
2022-12-22T02:23:28.743Z,10.10
2022-12-22T02:26:51.858Z,10.10
2022-12-22T02:29:47.685Z,10.10
2022-12-22T02:32:33.046Z,10.20
2022-12-22T02:35:18.432Z,10.10
2022-12-22T02:38:19.892Z,10.10
2022-12-22T02:41:23.486Z,10.10
2022-12-22T02:44:44.135Z,10.10
2022-12-22T02:47:48.305Z,10.10
2022-12-22T02:50:57.488Z,10.10
2022-12-22T02:53:43.941Z,10.10
2022-12-22T02:56:30.083Z,10.20
2022-12-22T02:59:15.238Z,10.20
2022-12-22T03:02:03.726Z,10.20
2022-12-22T03:04:49.347Z,10.30
2022-12-22T03:07:34.841Z,10.30
2022-12-22T03:10:20.259Z,10.40
2022-12-22T03:13:05.477Z,10.40
2022-12-22T03:15:50.854Z,10.40
2022-12-22T03:18:36.125Z,10.40
2022-12-22T03:21:21.592Z,10.50
2022-12-22T03:24:06.780Z,10.50
2022-12-22T03:26:33.620Z,10.50
2022-12-22T03:29:00.396Z,10.50
2022-12-22T03:31:27.813Z,10.50
2022-12-22T03:33:54.900Z,10.50
2022-12-22T03:36:21.650Z,10.50
2022-12-22T03:38:48.375Z,10.60
2022-12-22T03:41:33.668Z,10.60
2022-12-22T03:44:19.052Z,10.60
2022-12-22T03:46:45.912Z,10.50
2022-12-22T03:49:12.860Z,10.50
2022-12-22T03:51:47.740Z,10.50
2022-12-22T03:54:16.867Z,10.50
2022-12-22T03:56:44.304Z,10.40
2022-12-22T03:59:11.843Z,10.50
2022-12-22T04:02:00.489Z,10.50
2022-12-22T04:04:27.660Z,10.50
2022-12-22T04:06:55.494Z,10.50
2022-12-22T04:09:22.754Z,10.60
2022-12-22T04:12:07.893Z,10.60
2022-12-22T04:14:35.199Z,10.60
2022-12-22T04:17:03.670Z,10.60
2022-12-22T04:19:31.010Z,10.60
2022-12-22T04:21:57.973Z,10.60
2022-12-22T04:24:24.842Z,10.60
2022-12-22T04:26:51.778Z,10.50
2022-12-22T04:29:18.581Z,10.50
2022-12-22T04:31:45.353Z,10.50
2022-12-22T04:34:12.195Z,10.50
2022-12-22T04:36:38.916Z,10.50
2022-12-22T04:39:05.691Z,10.50
2022-12-22T04:41:32.386Z,10.60
2022-12-22T04:43:59.233Z,10.50
2022-12-22T04:46:26.034Z,10.60
2022-12-22T04:48:59.318Z,10.60
2022-12-22T04:51:27.292Z,10.60
2022-12-22T04:53:54.062Z,10.60
2022-12-22T04:56:20.813Z,10.60
2022-12-22T04:58:47.653Z,10.70
2022-12-22T05:01:16.761Z,10.70
2022-12-22T05:03:44.270Z,10.70
2022-12-22T05:06:11.148Z,10.70
2022-12-22T05:08:38.275Z,10.70
2022-12-22T05:11:05.482Z,10.70
2022-12-22T05:13:33.017Z,10.70
2022-12-22T05:16:05.169Z,10.70
2022-12-22T05:18:32.952Z,10.70
2022-12-22T05:21:02.899Z,10.70
2022-12-22T05:23:29.757Z,10.70
2022-12-22T05:25:56.463Z,10.70
2022-12-22T05:28:23.253Z,10.70
2022-12-22T05:30:50.061Z,10.70
2022-12-22T05:33:16.799Z,10.70
2022-12-22T05:35:43.565Z,10.70
2022-12-22T05:38:10.284Z,10.70
2022-12-22T05:40:37.063Z,10.80
2022-12-22T05:43:04.443Z,10.70
2022-12-22T05:45:31.335Z,10.70
2022-12-22T05:47:58.048Z,10.80
2022-12-22T05:50:26.349Z,10.80
2022-12-22T05:52:54.459Z,10.70
2022-12-22T05:55:21.187Z,10.70
2022-12-22T05:57:47.909Z,10.70
2022-12-22T06:00:16.358Z,10.70
2022-12-22T06:02:44.218Z,10.70
2022-12-22T06:05:12.499Z,10.70
2022-12-22T06:07:39.738Z,10.80
2022-12-22T06:10:11.895Z,10.80
2022-12-22T06:12:40.883Z,10.80
2022-12-22T06:15:09.773Z,10.80
2022-12-22T06:17:42.258Z,10.80
2022-12-22T06:20:11.509Z,10.80
2022-12-22T06:22:38.885Z,10.80
2022-12-22T06:25:06.161Z,10.80
2022-12-22T06:27:32.861Z,10.80
2022-12-22T06:29:59.556Z,10.90
2022-12-22T06:32:26.261Z,10.80
2022-12-22T06:34:53.068Z,10.90
2022-12-22T06:37:19.841Z,10.90
2022-12-22T06:39:46.531Z,10.90
2022-12-22T06:42:31.825Z,10.90
2022-12-22T06:44:58.641Z,10.90
2022-12-22T06:47:25.416Z,10.90
2022-12-22T06:49:52.326Z,10.90
2022-12-22T06:52:19.167Z,10.90
2022-12-22T06:54:45.927Z,10.90
2022-12-22T06:57:12.736Z,10.80
2022-12-22T06:59:39.452Z,10.90
2022-12-22T07:02:06.503Z,10.90
2022-12-22T07:04:33.544Z,10.90
2022-12-22T07:07:00.261Z,10.90
2022-12-22T07:09:26.989Z,10.90
2022-12-22T07:11:53.874Z,10.90
2022-12-22T07:14:20.745Z,10.90
2022-12-22T07:16:47.838Z,10.90
2022-12-22T07:19:14.628Z,10.90
2022-12-22T07:21:41.490Z,10.90
2022-12-22T07:24:08.555Z,10.90
2022-12-22T07:26:35.244Z,10.90
2022-12-22T07:29:01.992Z,10.90
2022-12-22T07:31:28.839Z,10.90
2022-12-22T07:33:55.558Z,10.90
2022-12-22T07:36:22.385Z,10.90
2022-12-22T07:38:51.404Z,10.90
2022-12-22T07:41:38.407Z,10.90
2022-12-22T07:44:05.398Z,10.90
2022-12-22T07:46:36.340Z,11.00
2022-12-22T07:49:22.772Z,10.90
2022-12-22T07:51:50.050Z,11.00
2022-12-22T07:54:17.582Z,11.00
2022-12-22T07:56:46.116Z,11.00
2022-12-22T07:59:13.402Z,11.10
2022-12-22T08:01:41.756Z,11.00
2022-12-22T08:04:13.746Z,11.00
2022-12-22T08:06:41.427Z,11.10
2022-12-22T08:09:09.223Z,11.10
2022-12-22T08:11:36.324Z,11.10
2022-12-22T08:14:03.046Z,11.10
2022-12-22T08:16:29.962Z,11.10
2022-12-22T08:18:57.090Z,11.10
2022-12-22T08:21:24.188Z,11.10
2022-12-22T08:23:50.923Z,11.10
2022-12-22T08:26:20.606Z,11.10
2022-12-22T08:28:50.187Z,11.10
2022-12-22T08:31:17.815Z,11.20
2022-12-22T08:33:46.067Z,11.20
2022-12-22T08:36:13.153Z,11.20
2022-12-22T08:38:42.388Z,11.20
2022-12-22T08:41:11.913Z,11.10
2022-12-22T08:43:38.600Z,11.10
2022-12-22T08:46:05.581Z,11.10
2022-12-22T08:48:32.610Z,11.10
2022-12-22T08:50:59.535Z,11.00
2022-12-22T08:54:02.712Z,11.00
2022-12-22T08:56:12.979Z,11.00
2022-12-22T08:58:40.218Z,11.00
2022-12-22T09:01:07.063Z,11.10
2022-12-22T09:03:33.987Z,11.10
2022-12-22T09:06:01.874Z,11.00
2022-12-22T09:08:28.738Z,11.10
2022-12-22T09:10:55.428Z,11.10
2022-12-22T09:13:22.115Z,11.10
2022-12-22T09:15:48.776Z,11.10
2022-12-22T09:18:15.524Z,11.10
2022-12-22T09:20:42.460Z,11.10
2022-12-22T09:23:09.313Z,11.00
2022-12-22T09:25:36.000Z,11.00
2022-12-22T09:28:02.796Z,11.10
2022-12-22T09:30:29.479Z,11.00
2022-12-22T09:32:56.244Z,11.00
2022-12-22T09:35:23.130Z,11.00
2022-12-22T09:37:49.893Z,11.00
2022-12-22T09:40:16.681Z,11.00
2022-12-22T09:42:43.441Z,11.00
2022-12-22T09:45:20.033Z,11.00
2022-12-22T09:47:54.940Z,11.00
2022-12-22T09:50:26.813Z,11.00
2022-12-22T09:53:01.249Z,11.10
2022-12-22T09:55:43.874Z,11.10
2022-12-22T09:58:27.517Z,11.10
2022-12-22T10:01:03.419Z,11.10
2022-12-22T10:03:39.171Z,11.20
2022-12-22T10:06:16.103Z,11.20
2022-12-22T10:08:43.360Z,11.20
2022-12-22T10:11:17.881Z,11.30
2022-12-22T10:13:45.787Z,11.30
2022-12-22T10:16:26.522Z,11.30
2022-12-22T10:19:22.503Z,11.20
2022-12-22T10:21:49.259Z,11.20
2022-12-22T10:24:36.508Z,11.20
2022-12-22T10:27:04.847Z,11.20
2022-12-22T10:29:33.430Z,11.30
2022-12-22T10:32:03.697Z,11.20
2022-12-22T10:34:31.207Z,11.20
2022-12-22T10:37:01.500Z,11.20
2022-12-22T10:39:33.745Z,11.20
2022-12-22T10:42:07.091Z,11.20
2022-12-22T10:44:35.311Z,11.20
2022-12-22T10:47:17.601Z,11.20
2022-12-22T10:49:48.191Z,11.10
2022-12-22T10:52:31.013Z,11.10
2022-12-22T10:55:17.871Z,11.10
2022-12-22T10:57:44.706Z,11.10
2022-12-22T11:00:32.249Z,11.20
2022-12-22T11:03:01.599Z,11.20
2022-12-22T11:05:29.584Z,11.20
2022-12-22T11:07:57.065Z,11.40
2022-12-22T11:10:41.617Z,11.50
2022-12-22T11:13:20.066Z,11.50
2022-12-22T11:16:07.160Z,11.60
2022-12-22T11:18:33.950Z,11.70
2022-12-22T11:21:31.671Z,11.70
2022-12-22T11:24:08.864Z,11.70
2022-12-22T11:27:10.328Z,11.60
2022-12-22T11:29:37.021Z,11.70
2022-12-22T11:32:22.849Z,11.70
2022-12-22T11:34:52.295Z,11.70
2022-12-22T11:37:31.490Z,11.70
2022-12-22T11:40:14.983Z,11.70
2022-12-22T11:42:56.488Z,11.70
2022-12-22T11:46:00.753Z,11.80
2022-12-22T11:48:46.047Z,11.70
2022-12-22T11:51:37.194Z,11.60
2022-12-22T11:54:25.777Z,11.60
2022-12-22T11:57:05.508Z,11.60
2022-12-22T12:00:04.990Z,11.70
2022-12-22T12:03:09.383Z,11.60
2022-12-22T12:06:10.208Z,11.60
2022-12-22T12:08:55.437Z,11.50
2022-12-22T12:11:36.972Z,11.60
2022-12-22T12:14:24.827Z,11.60
2022-12-22T12:17:12.658Z,11.70
2022-12-22T12:19:49.127Z,11.60
2022-12-22T12:22:53.903Z,11.50
2022-12-22T12:25:34.169Z,11.80
2022-12-22T12:28:20.439Z,11.90
2022-12-22T12:30:59.313Z,11.80
2022-12-22T12:33:37.012Z,11.90
2022-12-22T12:36:14.671Z,12.20
2022-12-22T12:39:08.837Z,12.10
2022-12-22T12:41:41.902Z,12.10
2022-12-22T12:44:14.268Z,12.20
2022-12-22T12:46:59.854Z,12.40
2022-12-22T12:49:36.255Z,12.50
2022-12-22T12:52:07.976Z,12.70
2022-12-22T12:54:34.597Z,12.60
2022-12-22T12:57:07.280Z,12.60
2022-12-22T12:59:40.150Z,12.60
2022-12-22T13:02:32.467Z,12.50
2022-12-22T13:05:14.663Z,12.40
2022-12-22T13:08:18.453Z,12.30
2022-12-22T13:10:54.509Z,12.30
2022-12-22T13:13:24.921Z,12.10
2022-12-22T13:16:00.870Z,12.00
2022-12-22T13:18:30.803Z,12.00
2022-12-22T13:21:34.496Z,11.90
2022-12-22T13:24:23.420Z,11.90
2022-12-22T13:26:44.982Z,11.90
2022-12-22T13:29:39.693Z,11.90
2022-12-22T13:32:25.472Z,11.80
2022-12-22T13:35:43.038Z,11.80
2022-12-22T13:38:26.154Z,11.90
2022-12-22T13:40:53.386Z,11.90
2022-12-22T13:43:20.819Z,11.90
2022-12-22T13:45:56.226Z,11.90
2022-12-22T13:48:35.929Z,11.90
2022-12-22T13:51:14.308Z,11.90
2022-12-22T13:54:07.626Z,12.00
2022-12-22T13:56:46.617Z,12.00
2022-12-22T13:59:18.457Z,12.10
2022-12-22T14:01:56.876Z,12.20
2022-12-22T14:04:23.900Z,12.30
2022-12-22T14:06:50.904Z,12.30
2022-12-22T14:09:24.907Z,12.20
2022-12-22T14:12:07.343Z,12.30
2022-12-22T14:14:39.709Z,12.30
2022-12-22T14:17:25.582Z,12.30
2022-12-22T14:20:00.437Z,12.30
2022-12-22T14:22:49.342Z,12.30
2022-12-22T14:25:21.765Z,12.20
2022-12-22T14:27:54.566Z,12.20
2022-12-22T14:30:31.011Z,12.20
2022-12-22T14:33:27.795Z,12.20
2022-12-22T14:36:18.380Z,12.10
2022-12-22T14:38:49.379Z,12.10
2022-12-22T14:41:40.869Z,12.10
2022-12-22T14:44:22.403Z,12.00
2022-12-22T14:47:17.757Z,12.00
2022-12-22T14:49:57.281Z,11.90
2022-12-22T14:52:51.155Z,11.90
2022-12-22T14:55:28.914Z,11.90
2022-12-22T14:58:10.967Z,11.80
2022-12-22T15:00:45.810Z,11.80
2022-12-22T15:03:37.569Z,11.80
2022-12-22T15:06:28.447Z,11.80
2022-12-22T15:09:12.081Z,11.80
2022-12-22T15:11:45.225Z,11.80
2022-12-22T15:14:20.086Z,11.80
2022-12-22T15:16:47.586Z,11.70
2022-12-22T15:19:17.252Z,11.70
2022-12-22T15:21:44.525Z,11.60
2022-12-22T15:24:12.813Z,11.60
2022-12-22T15:26:39.486Z,11.60
2022-12-22T15:29:06.166Z,11.60
2022-12-22T15:31:33.110Z,11.60
2022-12-22T15:34:02.611Z,11.60
2022-12-22T15:36:29.438Z,11.60
2022-12-22T15:38:56.225Z,11.60
2022-12-22T15:41:23.497Z,11.60
2022-12-22T15:43:58.930Z,11.60
2022-12-22T15:46:26.282Z,11.70
2022-12-22T15:48:53.337Z,11.60
2022-12-22T15:51:26.741Z,11.70
2022-12-22T15:53:55.092Z,11.60
2022-12-22T15:56:24.772Z,11.50
2022-12-22T15:58:52.151Z,11.50
2022-12-22T16:01:19.176Z,11.50
2022-12-22T16:03:46.096Z,11.50
2022-12-22T16:06:17.720Z,11.50
2022-12-22T16:08:49.736Z,11.50
2022-12-22T16:11:17.336Z,11.50
2022-12-22T16:13:44.957Z,11.50
2022-12-22T16:16:12.272Z,11.50
2022-12-22T16:18:39.092Z,11.50
2022-12-22T16:21:15.562Z,11.50
2022-12-22T16:23:44.791Z,11.50
2022-12-22T16:26:16.955Z,11.40
2022-12-22T16:28:43.956Z,11.30
2022-12-22T16:31:22.689Z,11.40
2022-12-22T16:33:50.174Z,11.30
2022-12-22T16:36:17.982Z,11.40
2022-12-22T16:38:45.992Z,11.30
2022-12-22T16:41:23.938Z,11.40
2022-12-22T16:43:52.636Z,11.40
2022-12-22T16:46:21.840Z,11.50
2022-12-22T16:48:54.233Z,11.50
2022-12-22T16:51:37.364Z,11.50
2022-12-22T16:54:04.694Z,11.50
2022-12-22T16:56:32.521Z,11.50
2022-12-22T16:59:00.833Z,11.50
2022-12-22T17:01:52.610Z,11.60
2022-12-22T17:04:24.470Z,11.50
2022-12-22T17:06:53.045Z,11.60
2022-12-22T17:09:26.013Z,11.60
2022-12-22T17:11:54.869Z,11.50
2022-12-22T17:14:27.445Z,11.60
2022-12-22T17:16:54.331Z,11.60
2022-12-22T17:19:21.093Z,11.50
2022-12-22T17:21:48.425Z,11.50
2022-12-22T17:24:20.453Z,11.50
2022-12-22T17:26:51.050Z,11.50
2022-12-22T17:29:23.613Z,11.50
2022-12-22T17:31:50.940Z,11.50
2022-12-22T17:34:19.564Z,11.50
2022-12-22T17:36:49.309Z,11.50
2022-12-22T17:39:19.387Z,11.50
2022-12-22T17:41:50.609Z,11.50
2022-12-22T17:44:23.288Z,11.50
2022-12-22T17:46:50.124Z,11.50
2022-12-22T17:49:19.842Z,11.50
2022-12-22T17:51:47.019Z,11.50
2022-12-22T17:54:26.478Z,11.50
2022-12-22T17:57:19.063Z,11.50
2022-12-22T17:59:46.167Z,11.50
2022-12-22T18:02:20.712Z,11.50
2022-12-22T18:04:48.376Z,11.50
2022-12-22T18:07:20.869Z,11.50
2022-12-22T18:09:49.303Z,11.50
2022-12-22T18:12:21.066Z,11.50
2022-12-22T18:14:49.470Z,11.50
2022-12-22T18:17:35.581Z,11.50
2022-12-22T18:20:03.438Z,11.50
2022-12-22T18:22:30.631Z,11.60
2022-12-22T18:24:57.869Z,11.60
2022-12-22T18:27:25.107Z,11.60
2022-12-22T18:29:52.066Z,11.60
2022-12-22T18:32:27.031Z,11.60
2022-12-22T18:34:54.559Z,11.60
2022-12-22T18:37:21.351Z,11.50
2022-12-22T18:39:48.329Z,11.60
2022-12-22T18:42:23.602Z,11.60
2022-12-22T18:44:51.636Z,11.60
2022-12-22T18:47:18.733Z,11.60
2022-12-22T18:49:46.105Z,11.60
2022-12-22T18:52:19.811Z,11.60
2022-12-22T18:54:47.504Z,11.70
2022-12-22T18:57:16.453Z,11.60
2022-12-22T18:59:43.945Z,11.60
2022-12-22T19:02:28.460Z,11.60
2022-12-22T19:04:57.198Z,11.60
2022-12-22T19:07:25.774Z,11.50
2022-12-22T19:09:52.654Z,11.50
2022-12-22T19:12:25.269Z,11.50
2022-12-22T19:14:57.266Z,11.50
2022-12-22T19:17:28.841Z,11.30
2022-12-22T19:19:56.802Z,11.30
2022-12-22T19:22:23.701Z,11.30
2022-12-22T19:24:51.561Z,11.30
2022-12-22T19:27:23.185Z,11.30
2022-12-22T19:29:53.791Z,11.30
2022-12-22T19:32:27.732Z,11.30
2022-12-22T19:34:54.802Z,11.30
2022-12-22T19:37:21.653Z,11.30
2022-12-22T19:39:48.455Z,11.30
2022-12-22T19:42:20.680Z,11.30
2022-12-22T19:44:47.891Z,11.30
2022-12-22T19:47:29.611Z,11.30
2022-12-22T19:49:56.624Z,11.30
2022-12-22T19:52:23.493Z,11.40
2022-12-22T19:54:50.240Z,11.40
2022-12-22T19:57:21.826Z,11.40
2022-12-22T19:59:51.561Z,11.40
2022-12-22T20:02:21.616Z,11.30
2022-12-22T20:04:49.845Z,11.40
2022-12-22T20:07:18.734Z,11.30
2022-12-22T20:09:45.869Z,11.10
2022-12-22T20:12:28.350Z,11.10
2022-12-22T20:14:55.253Z,11.10
2022-12-22T20:17:22.108Z,11.10
2022-12-22T20:19:49.235Z,11.10
2022-12-22T20:22:18.013Z,11.10
2022-12-22T20:24:46.425Z,11.10
2022-12-22T20:27:34.520Z,11.10
2022-12-22T20:30:01.479Z,11.10
2022-12-22T20:32:28.795Z,11.00
2022-12-22T20:34:56.206Z,11.20
2022-12-22T20:37:23.050Z,11.20
2022-12-22T20:39:49.859Z,11.20
2022-12-22T20:42:21.458Z,11.20
2022-12-22T20:45:03.492Z,11.20
2022-12-22T20:47:32.197Z,11.20
2022-12-22T20:49:59.383Z,11.20
2022-12-22T20:52:26.533Z,11.20
2022-12-22T20:54:53.279Z,11.20
2022-12-22T20:57:21.579Z,11.20
2022-12-22T20:59:55.415Z,11.20
2022-12-22T21:02:27.687Z,11.20
2022-12-22T21:04:55.071Z,11.20
2022-12-22T21:07:21.968Z,11.20
2022-12-22T21:09:49.001Z,11.30
2022-12-22T21:12:15.710Z,11.30
2022-12-22T21:14:42.407Z,11.30
2022-12-22T21:17:19.350Z,11.20
2022-12-22T21:19:46.533Z,11.30
2022-12-22T21:22:13.869Z,11.30
2022-12-22T21:24:41.659Z,11.30
2022-12-22T21:27:15.328Z,11.30
2022-12-22T21:29:42.019Z,11.30
2022-12-22T21:32:14.890Z,11.20
2022-12-22T21:34:41.710Z,11.20
2022-12-22T21:37:16.142Z,11.20
2022-12-22T21:39:44.700Z,11.20
2022-12-22T21:42:19.661Z,11.10
2022-12-22T21:44:46.731Z,11.20
2022-12-22T21:47:16.114Z,11.10
2022-12-22T21:49:42.932Z,11.10
2022-12-22T21:52:09.680Z,11.10
2022-12-22T21:54:36.394Z,11.10
2022-12-22T21:57:03.398Z,11.10
2022-12-22T21:59:30.321Z,11.10
2022-12-22T22:01:57.368Z,11.10
2022-12-22T22:04:24.817Z,11.10
2022-12-22T22:06:51.481Z,11.20
2022-12-22T22:09:18.136Z,11.20
2022-12-22T22:12:03.235Z,11.20
2022-12-22T22:14:29.990Z,11.10
2022-12-22T22:16:56.638Z,11.10
2022-12-22T22:19:23.495Z,11.10
2022-12-22T22:21:50.241Z,11.10
2022-12-22T22:24:17.088Z,11.20
2022-12-22T22:26:46.099Z,11.20
2022-12-22T22:29:13.307Z,11.20
2022-12-22T22:31:41.292Z,11.30
2022-12-22T22:34:08.251Z,11.30
2022-12-22T22:36:35.131Z,11.30
2022-12-22T22:39:01.920Z,11.30
2022-12-22T22:41:31.119Z,11.40
2022-12-22T22:43:58.181Z,11.40
2022-12-22T22:46:25.126Z,11.40
2022-12-22T22:48:52.001Z,11.30
2022-12-22T22:51:18.687Z,11.30
2022-12-22T22:53:45.499Z,11.40
2022-12-22T22:56:12.210Z,11.40
2022-12-22T22:58:38.899Z,11.40
2022-12-22T23:01:10.803Z,11.40
2022-12-22T23:03:38.428Z,11.40
2022-12-22T23:06:10.639Z,11.40
2022-12-22T23:08:37.447Z,11.40
2022-12-22T23:11:05.682Z,11.50
2022-12-22T23:13:32.899Z,11.40
2022-12-22T23:16:02.508Z,11.40
2022-12-22T23:18:30.592Z,11.30
2022-12-22T23:20:58.710Z,11.30
2022-12-22T23:23:25.526Z,11.30
2022-12-22T23:25:52.405Z,11.30
2022-12-22T23:28:19.353Z,11.30
2022-12-22T23:30:49.202Z,11.30
2022-12-22T23:33:16.350Z,11.30
2022-12-22T23:35:45.591Z,11.30
2022-12-22T23:38:12.412Z,11.30
2022-12-22T23:40:55.952Z,11.30
2022-12-22T23:43:22.909Z,11.30
2022-12-22T23:45:49.679Z,11.30
2022-12-22T23:48:16.844Z,11.30
2022-12-22T23:50:47.109Z,11.30
2022-12-22T23:53:14.650Z,11.30
2022-12-22T23:55:48.909Z,11.30
2022-12-22T23:58:17.039Z,11.30
